createdAt,value
2022-11-10T00:03:47.595Z,0.00
2022-11-10T00:08:47.468Z,0.00
2022-11-10T00:13:47.412Z,0.00
2022-11-10T00:18:47.338Z,0.00
2022-11-10T00:23:47.287Z,0.00
2022-11-10T00:28:47.207Z,0.00
2022-11-10T00:33:47.150Z,0.00
2022-11-10T00:38:47.076Z,0.00
2022-11-10T00:43:47.023Z,0.00
2022-11-10T00:48:46.949Z,0.00
2022-11-10T00:53:46.879Z,0.00
2022-11-10T00:58:46.825Z,0.00
2022-11-10T01:03:46.750Z,0.00
2022-11-10T01:08:46.693Z,0.00
2022-11-10T01:13:46.622Z,0.00
2022-11-10T01:18:46.564Z,0.00
2022-11-10T01:23:46.489Z,0.00
2022-11-10T01:28:46.433Z,0.00
2022-11-10T01:33:46.358Z,0.00
2022-11-10T01:38:46.299Z,0.00
2022-11-10T01:43:46.227Z,0.00
2022-11-10T01:48:46.169Z,0.00
2022-11-10T01:53:46.097Z,0.00
2022-11-10T01:58:46.038Z,0.00
2022-11-10T02:03:45.964Z,0.00
2022-11-10T02:08:45.907Z,0.00
2022-11-10T02:13:45.836Z,0.00
2022-11-10T02:18:45.777Z,0.00
2022-11-10T02:23:45.701Z,0.00
2022-11-10T02:28:45.645Z,0.00
2022-11-10T02:33:45.572Z,0.00
2022-11-10T02:38:45.514Z,0.00
2022-11-10T02:43:45.439Z,0.00
2022-11-10T02:48:45.390Z,0.00
2022-11-10T02:53:45.308Z,0.00
2022-11-10T02:58:45.250Z,0.00
2022-11-10T03:03:45.175Z,0.00
2022-11-10T03:08:45.123Z,0.00
2022-11-10T03:14:01.077Z,0.00
2022-11-10T03:18:46.010Z,0.00
2022-11-10T03:23:44.910Z,0.00
2022-11-10T03:28:44.853Z,0.00
2022-11-10T03:33:44.780Z,0.00
2022-11-10T03:38:44.721Z,0.00
2022-11-10T03:43:44.647Z,0.00
2022-11-10T03:48:50.176Z,0.00
2022-11-10T03:53:44.512Z,0.00
2022-11-10T03:58:44.455Z,0.00
2022-11-10T04:03:48.808Z,0.00
2022-11-10T04:08:44.327Z,0.00
2022-11-10T04:13:44.251Z,0.00
2022-11-10T04:18:44.192Z,0.00
2022-11-10T04:23:44.119Z,0.00
2022-11-10T04:28:44.059Z,0.00
2022-11-10T04:33:43.987Z,0.00
2022-11-10T04:38:43.927Z,0.00
2022-11-10T04:43:43.856Z,0.00
2022-11-10T04:48:43.794Z,0.00
2022-11-10T04:53:43.731Z,0.00
2022-11-10T04:58:43.670Z,0.00
2022-11-10T05:03:43.603Z,0.00
2022-11-10T05:08:43.538Z,0.00
2022-11-10T05:13:43.474Z,0.00
2022-11-10T05:18:43.411Z,0.00
2022-11-10T05:23:43.342Z,0.00
2022-11-10T05:28:43.283Z,0.00
2022-11-10T05:33:43.212Z,0.00
2022-11-10T05:38:43.818Z,0.00
2022-11-10T05:43:43.082Z,0.00
2022-11-10T05:48:43.009Z,0.00
2022-11-10T05:53:42.953Z,0.00
2022-11-10T05:58:42.879Z,0.00
2022-11-10T06:03:42.936Z,0.00
2022-11-10T06:08:42.749Z,5.62
2022-11-10T06:13:42.693Z,11.25
2022-11-10T06:18:42.619Z,16.87
2022-11-10T06:23:42.563Z,28.12
2022-11-10T06:28:42.493Z,39.37
2022-11-10T06:33:42.433Z,61.87
2022-11-10T06:38:42.359Z,78.75
2022-11-10T06:43:42.304Z,101.25
2022-11-10T06:48:42.230Z,135.00
2022-11-10T06:53:42.172Z,157.50
2022-11-10T06:58:42.110Z,635.62
2022-11-10T07:04:05.222Z,950.62
2022-11-10T07:08:43.005Z,1327.50
2022-11-10T07:13:41.912Z,1181.25
2022-11-10T07:18:41.850Z,1074.37
2022-11-10T07:23:41.781Z,1164.37
2022-11-10T07:28:41.717Z,1158.75
2022-11-10T07:33:41.648Z,748.12
2022-11-10T07:38:41.575Z,821.25
2022-11-10T07:43:41.517Z,815.62
2022-11-10T07:48:41.447Z,675.00
2022-11-10T07:53:41.391Z,568.12
2022-11-10T07:58:41.314Z,804.37
2022-11-10T08:03:41.260Z,855.00
2022-11-10T08:08:41.185Z,843.75
2022-11-10T08:13:41.127Z,416.25
2022-11-10T08:18:41.063Z,911.25
2022-11-10T08:23:40.996Z,1001.25
2022-11-10T08:28:40.931Z,1080.00
2022-11-10T08:33:40.864Z,950.62
2022-11-10T08:38:40.800Z,973.12
2022-11-10T08:43:40.731Z,765.00
2022-11-10T08:48:40.668Z,765.00
2022-11-10T08:53:40.611Z,2233.12
2022-11-10T08:58:48.793Z,2953.12
2022-11-10T09:03:41.508Z,2953.12
2022-11-10T09:08:40.399Z,3172.50
2022-11-10T09:13:40.351Z,2390.62
2022-11-10T09:18:40.268Z,416.25
2022-11-10T09:23:40.223Z,326.25
2022-11-10T09:28:40.139Z,303.75
2022-11-10T09:33:40.082Z,2576.25
2022-11-10T09:38:40.010Z,2874.37
2022-11-10T09:43:39.948Z,2964.37
2022-11-10T09:48:39.878Z,2773.12
2022-11-10T09:53:39.824Z,2711.25
2022-11-10T09:58:39.754Z,2638.12
2022-11-10T10:03:39.695Z,2795.62
2022-11-10T10:08:39.625Z,2767.50
2022-11-10T10:13:39.626Z,2700.00
2022-11-10T10:18:39.498Z,2947.50
2022-11-10T10:24:08.050Z,2739.37
2022-11-10T10:28:40.402Z,2829.37
2022-11-10T10:33:39.330Z,2700.00
2022-11-10T10:38:39.251Z,523.12
2022-11-10T10:43:39.203Z,2666.25
2022-11-10T10:48:39.123Z,2778.75
2022-11-10T10:53:39.089Z,2823.75
2022-11-10T10:58:38.997Z,3020.62
2022-11-10T11:03:38.945Z,3020.62
2022-11-10T11:08:38.867Z,450.00
2022-11-10T11:13:38.810Z,2356.87
2022-11-10T11:18:38.740Z,1670.62
2022-11-10T11:23:38.680Z,1861.87
2022-11-10T11:28:38.608Z,1558.12
2022-11-10T11:33:38.562Z,1170.00
2022-11-10T11:38:38.480Z,1051.87
2022-11-10T11:43:38.435Z,1085.62
2022-11-10T11:48:38.351Z,703.12
2022-11-10T11:53:38.302Z,483.75
2022-11-10T11:58:38.221Z,1006.87
2022-11-10T12:03:38.184Z,416.25
2022-11-10T12:08:38.271Z,1203.75
2022-11-10T12:13:38.029Z,1057.50
2022-11-10T12:18:37.954Z,1890.00
2022-11-10T12:23:37.898Z,2570.62
2022-11-10T12:28:37.827Z,416.25
2022-11-10T12:33:37.770Z,298.12
2022-11-10T12:38:37.699Z,286.87
2022-11-10T12:43:37.639Z,253.12
2022-11-10T12:48:37.566Z,264.37
2022-11-10T12:53:37.535Z,275.62
2022-11-10T12:58:37.434Z,264.37
2022-11-10T13:03:37.398Z,253.12
2022-11-10T13:08:37.302Z,253.12
2022-11-10T13:13:37.256Z,208.12
2022-11-10T13:18:37.173Z,219.37
2022-11-10T13:23:37.124Z,208.12
2022-11-10T13:28:37.066Z,213.75
2022-11-10T13:33:36.998Z,208.12
2022-11-10T13:38:36.911Z,202.50
2022-11-10T13:43:36.854Z,196.87
2022-11-10T13:48:36.783Z,185.62
2022-11-10T13:53:36.732Z,180.00
2022-11-10T13:58:36.663Z,174.37
2022-11-10T14:03:36.748Z,168.75
2022-11-10T14:08:36.519Z,157.50
2022-11-10T14:13:36.461Z,151.87
2022-11-10T14:18:36.383Z,146.25
2022-11-10T14:23:36.326Z,135.00
2022-11-10T14:28:36.309Z,129.37
2022-11-10T14:33:36.242Z,123.75
2022-11-10T14:38:36.161Z,112.50
2022-11-10T14:43:36.127Z,106.87
2022-11-10T14:48:36.055Z,90.00
2022-11-10T14:53:35.997Z,84.37
2022-11-10T14:58:35.917Z,73.12
2022-11-10T15:03:35.845Z,61.87
2022-11-10T15:08:35.738Z,50.62
2022-11-10T15:13:35.678Z,45.00
2022-11-10T15:18:35.606Z,33.75
2022-11-10T15:23:35.540Z,22.50
2022-11-10T15:28:35.479Z,16.87
2022-11-10T15:33:35.412Z,11.25
2022-11-10T15:38:35.344Z,5.62
2022-11-10T15:43:35.282Z,0.00
2022-11-10T15:48:35.210Z,0.00
2022-11-10T15:53:35.153Z,0.00
2022-11-10T15:58:35.079Z,0.00
2022-11-10T16:03:35.021Z,0.00
2022-11-10T16:08:34.946Z,0.00
2022-11-10T16:13:34.889Z,0.00
2022-11-10T16:18:34.826Z,0.00
2022-11-10T16:23:34.755Z,0.00
2022-11-10T16:28:34.693Z,0.00
2022-11-10T16:33:34.624Z,0.00
2022-11-10T16:38:34.560Z,0.00
2022-11-10T16:43:34.492Z,0.00
2022-11-10T16:48:34.429Z,0.00
2022-11-10T16:53:34.361Z,0.00
2022-11-10T16:58:34.312Z,0.00
2022-11-10T17:03:34.230Z,0.00
2022-11-10T17:08:34.166Z,0.00
2022-11-10T17:13:34.100Z,0.00
2022-11-10T17:18:34.041Z,0.00
2022-11-10T17:23:34.015Z,0.00
2022-11-10T17:28:33.908Z,0.00
2022-11-10T17:33:33.841Z,0.00
2022-11-10T17:38:33.766Z,0.00
2022-11-10T17:43:33.706Z,0.00
2022-11-10T17:48:33.634Z,0.00
2022-11-10T17:53:33.577Z,0.00
2022-11-10T17:58:33.503Z,0.00
2022-11-10T18:03:33.446Z,0.00
2022-11-10T18:08:33.372Z,0.00
2022-11-10T18:13:33.316Z,0.00
2022-11-10T18:18:33.247Z,0.00
2022-11-10T18:23:33.187Z,0.00
2022-11-10T18:28:33.115Z,0.00
2022-11-10T18:33:33.051Z,0.00
2022-11-10T18:38:33.019Z,0.00
2022-11-10T18:43:32.916Z,0.00
2022-11-10T18:48:37.142Z,0.00
2022-11-10T18:53:37.899Z,0.00
2022-11-10T18:58:32.712Z,0.00
2022-11-10T19:03:32.654Z,0.00
2022-11-10T19:08:32.589Z,0.00
2022-11-10T19:13:32.525Z,0.00
2022-11-10T19:18:32.454Z,0.00
2022-11-10T19:23:32.395Z,0.00
2022-11-10T19:28:32.321Z,0.00
2022-11-10T19:33:32.265Z,0.00
2022-11-10T19:38:32.193Z,0.00
2022-11-10T19:43:32.136Z,0.00
2022-11-10T19:48:32.063Z,0.00
2022-11-10T19:53:32.004Z,0.00
2022-11-10T19:58:31.933Z,0.00
2022-11-10T20:03:31.877Z,0.00
2022-11-10T20:08:31.803Z,0.00
2022-11-10T20:13:31.757Z,0.00
2022-11-10T20:18:31.673Z,0.00
2022-11-10T20:23:31.629Z,0.00
2022-11-10T20:28:31.543Z,0.00
2022-11-10T20:33:31.497Z,0.00
2022-11-10T20:38:31.412Z,0.00
2022-11-10T20:43:31.366Z,0.00
2022-11-10T20:48:31.281Z,0.00
2022-11-10T20:53:31.225Z,0.00
2022-11-10T20:58:31.151Z,0.00
2022-11-10T21:03:31.092Z,0.00
2022-11-10T21:08:31.021Z,0.00
2022-11-10T21:13:30.963Z,0.00
2022-11-10T21:18:30.892Z,0.00
2022-11-10T21:23:30.834Z,0.00
2022-11-10T21:28:30.759Z,0.00
2022-11-10T21:33:30.713Z,0.00
2022-11-10T21:38:30.670Z,0.00
2022-11-10T21:43:30.582Z,0.00
2022-11-10T21:48:30.499Z,0.00
2022-11-10T21:53:30.450Z,0.00
2022-11-10T21:58:30.367Z,0.00
2022-11-10T22:03:30.320Z,0.00
2022-11-10T22:08:30.238Z,0.00
2022-11-10T22:13:30.183Z,0.00
2022-11-10T22:18:30.113Z,0.00
2022-11-10T22:23:30.050Z,0.00
2022-11-10T22:28:29.982Z,0.00
2022-11-10T22:33:29.920Z,0.00
2022-11-10T22:38:29.851Z,0.00
2022-11-10T22:43:29.796Z,0.00
2022-11-10T22:48:29.723Z,0.00
2022-11-10T22:53:29.648Z,0.00
2022-11-10T22:58:29.590Z,0.00
2022-11-10T23:03:29.519Z,0.00
2022-11-10T23:08:29.461Z,0.00
2022-11-10T23:13:29.388Z,0.00
2022-11-10T23:18:29.328Z,0.00
2022-11-10T23:23:29.255Z,0.00
2022-11-10T23:28:29.195Z,0.00
2022-11-10T23:33:32.664Z,0.00
2022-11-10T23:38:29.063Z,0.00
2022-11-10T23:43:29.000Z,0.00
2022-11-10T23:48:28.933Z,0.00
2022-11-10T23:53:28.877Z,0.00
2022-11-10T23:58:28.800Z,0.00
